Castana, IA (51010)

5:06 AM CDT on April 19, 2015 (GMT -0500)
Castana | | Change Station
CLOSE
Current Station
Personal Weather Station
Location: Castana, IA
Elevation: 1099 ft
Nearby Weather Stations
Active Advisory: Special Statement

Elev 1099 ft 42.08 °N, 95.89 °W | Updated 10 seconds ago

Overcast
Overcast
53.8 °F
Feels Like 53.8 °F
N
0.0
Wind Variable Wind from WSW
Gusts 1.0 mph

Today
High -- | Low -- °F
--% Chance of Precip.
Yesterday
High -- | Low -- °F
Precip. -- in
6:37 AM 8:09 PM
New Moon, 1% visible
Pressure 29.71 in
Visibility 2.5 miles
Clouds Overcast 300 ft
Dew Point 53 °F
Humidity 98%
Rainfall 0.01 in
Snow Depth Not available.
UV 0 out of 12
Pollen 3.60 out of 12
Air Quality Not available.
Flu Activity Local Activity
METAR KTQE 190954Z AUTO 15005KT 2 1/2SM BR OVC003 13/13 A2973 RMK AO2 SLP060 T01330128

More Conditions Fewer Conditions

Pressure 29.71 in
Visibility 2.5 miles
Clouds Overcast 300 ft
Dew Point 53 °F
Humidity 98%
Rainfall 0.01 in
Snow Depth Not available.
UV 0 out of 12
Pollen 3.60 out of 12
Air Quality Not available.
Flu Activity Local Activity
METAR KTQE 190954Z AUTO 15005KT 2 1/2SM BR OVC003 13/13 A2973 RMK AO2 SLP060 T01330128

More Conditions Fewer Conditions

10-Day Weather Forecast

Almanac

Astronomy

Apr. 19, 2015 Rise Set
Actual Time
Civil Twilight
Nautical Twilight
Astronomical Twilight
Moon
Length of Visible Light
Length of Day
Tomorrow will be .
, % of the Moon is Illuminated

Today's Extremes

State Highs State Lows

Community

WunderPhotos

Upload Photos

1,814,755 photos uploaded!

WunderBlogs® & News

Nearby

Air Quality

  Air Quality AQ Index Pollutant
Not available.

Snow Depth

Station Depth Elevation

Earthquake Activity

City Distance Mag. Time & Date
Minimum magnitude displayed is 2.5.

Coastal Water Temperatures

Place Temperature

Stations

Nearby Weather Stations

Station Location Temp. Windchill Dew Point Humidity Wind Precip. Elev Updated Type
                   
Special Statement
Statement as of 4:56 AM CDT on April 19, 2015

... Significant weather alert for areas of dense fog

Areas of dense fog are developing this morning in western Iowa and
extreme eastern Nebraska. Visibility will improve this morning as
rain moves into the area. In the meantime... visibility of a
quarter mile or less is possible briefly this morning. Be prepared
for rapidly changing visibility conditions... use low beam
headlights... and leave plenty of distance between your vehicle and
ones in front of you.


Mayes


456 am CDT sun Apr 19 2015

... Significant weather alert for areas of dense fog

Areas of dense fog are developing this morning in western Iowa and
extreme eastern Nebraska. Visibility will improve this morning as
rain moves into the area. In the meantime... visibility of a
quarter mile or less is possible briefly this morning. Be prepared
for rapidly changing visibility conditions... use low beam
headlights... and leave plenty of distance between your vehicle and
ones in front of you.


Mayes